sensor_id;sensor_type;location;lat;lon;timestamp;temperature;humidity
52058;DHT22;38063;53.210;6.504;2023-04-15T00:00:29;7.10;99.90
52058;DHT22;38063;53.210;6.504;2023-04-15T00:02:55;7.30;99.90
52058;DHT22;38063;53.210;6.504;2023-04-15T00:05:21;7.10;99.90
52058;DHT22;38063;53.210;6.504;2023-04-15T00:07:46;7.50;99.90
52058;DHT22;38063;53.210;6.504;2023-04-15T00:10:12;7.10;99.90
52058;DHT22;38063;53.210;6.504;2023-04-15T00:12:39;7.00;99.90
52058;DHT22;38063;53.210;6.504;2023-04-15T00:15:06;7.00;99.90
52058;DHT22;38063;53.210;6.504;2023-04-15T00:17:33;7.00;99.90
52058;DHT22;38063;53.210;6.504;2023-04-15T00:19:59;7.00;99.90
52058;DHT22;38063;53.210;6.504;2023-04-15T00:22:26;7.00;99.90
52058;DHT22;38063;53.210;6.504;2023-04-15T00:24:52;7.00;99.90
52058;DHT22;38063;53.210;6.504;2023-04-15T00:27:18;7.00;99.90
52058;DHT22;38063;53.210;6.504;2023-04-15T00:29:44;7.00;99.90
52058;DHT22;38063;53.210;6.504;2023-04-15T00:32:10;7.00;99.90
52058;DHT22;38063;53.210;6.504;2023-04-15T00:34:36;7.00;99.90
52058;DHT22;38063;53.210;6.504;2023-04-15T00:37:02;7.00;99.90
52058;DHT22;38063;53.210;6.504;2023-04-15T00:39:27;7.00;99.90
52058;DHT22;38063;53.210;6.504;2023-04-15T00:41:54;7.00;99.90
52058;DHT22;38063;53.210;6.504;2023-04-15T00:44:20;7.00;99.90
52058;DHT22;38063;53.210;6.504;2023-04-15T00:46:46;7.00;99.90
52058;DHT22;38063;53.210;6.504;2023-04-15T00:49:13;7.00;99.90
52058;DHT22;38063;53.210;6.504;2023-04-15T00:51:38;7.00;99.90
52058;DHT22;38063;53.210;6.504;2023-04-15T00:54:05;7.00;99.90
52058;DHT22;38063;53.210;6.504;2023-04-15T00:56:36;7.00;99.90
52058;DHT22;38063;53.210;6.504;2023-04-15T00:59:03;7.00;99.90
52058;DHT22;38063;53.210;6.504;2023-04-15T01:01:32;6.90;99.90
52058;DHT22;38063;53.210;6.504;2023-04-15T01:03:58;6.90;99.90
52058;DHT22;38063;53.210;6.504;2023-04-15T01:06:24;6.90;99.90
52058;DHT22;38063;53.210;6.504;2023-04-15T01:08:51;6.90;99.90
52058;DHT22;38063;53.210;6.504;2023-04-15T01:11:18;6.80;99.90
52058;DHT22;38063;53.210;6.504;2023-04-15T01:13:45;6.80;99.90
52058;DHT22;38063;53.210;6.504;2023-04-15T01:16:11;6.90;99.90
52058;DHT22;38063;53.210;6.504;2023-04-15T01:18:37;6.70;99.90
52058;DHT22;38063;53.210;6.504;2023-04-15T01:21:04;7.40;99.90
52058;DHT22;38063;53.210;6.504;2023-04-15T01:23:31;6.70;99.90
52058;DHT22;38063;53.210;6.504;2023-04-15T01:25:58;6.70;99.90
52058;DHT22;38063;53.210;6.504;2023-04-15T01:28:24;6.60;99.90
52058;DHT22;38063;53.210;6.504;2023-04-15T01:30:50;6.60;99.90
52058;DHT22;38063;53.210;6.504;2023-04-15T01:33:15;7.10;99.90
52058;DHT22;38063;53.210;6.504;2023-04-15T01:35:42;6.60;99.90
52058;DHT22;38063;53.210;6.504;2023-04-15T01:38:10;6.60;99.90
52058;DHT22;38063;53.210;6.504;2023-04-15T01:40:36;6.50;99.90
52058;DHT22;38063;53.210;6.504;2023-04-15T01:43:02;6.50;99.90
52058;DHT22;38063;53.210;6.504;2023-04-15T01:45:28;6.60;99.90
52058;DHT22;38063;53.210;6.504;2023-04-15T01:47:54;6.50;99.90
52058;DHT22;38063;53.210;6.504;2023-04-15T01:50:20;6.50;99.90
52058;DHT22;38063;53.210;6.504;2023-04-15T01:52:46;7.00;99.90
52058;DHT22;38063;53.210;6.504;2023-04-15T01:55:12;6.50;99.90
52058;DHT22;38063;53.210;6.504;2023-04-15T01:57:38;6.50;99.90
52058;DHT22;38063;53.210;6.504;2023-04-15T02:00:05;6.50;99.90
52058;DHT22;38063;53.210;6.504;2023-04-15T02:02:32;6.40;99.90
52058;DHT22;38063;53.210;6.504;2023-04-15T02:04:58;6.40;99.90
52058;DHT22;38063;53.210;6.504;2023-04-15T02:07:24;7.40;99.90
52058;DHT22;38063;53.210;6.504;2023-04-15T02:09:50;6.40;99.90
52058;DHT22;38063;53.210;6.504;2023-04-15T02:12:15;6.40;99.90
52058;DHT22;38063;53.210;6.504;2023-04-15T02:14:41;6.40;99.90
52058;DHT22;38063;53.210;6.504;2023-04-15T02:17:07;6.40;99.90
52058;DHT22;38063;53.210;6.504;2023-04-15T02:19:36;7.00;99.90
52058;DHT22;38063;53.210;6.504;2023-04-15T02:22:02;6.30;99.90
52058;DHT22;38063;53.210;6.504;2023-04-15T02:24:28;6.20;99.90
52058;DHT22;38063;53.210;6.504;2023-04-15T02:26:55;6.20;99.90
52058;DHT22;38063;53.210;6.504;2023-04-15T02:29:20;6.50;99.90
52058;DHT22;38063;53.210;6.504;2023-04-15T02:31:47;6.20;99.90
52058;DHT22;38063;53.210;6.504;2023-04-15T02:34:13;6.10;99.90
52058;DHT22;38063;53.210;6.504;2023-04-15T02:36:39;6.10;99.90
52058;DHT22;38063;53.210;6.504;2023-04-15T02:39:05;6.10;99.90
52058;DHT22;38063;53.210;6.504;2023-04-15T02:41:31;6.00;99.90
52058;DHT22;38063;53.210;6.504;2023-04-15T02:43:57;6.00;99.90
52058;DHT22;38063;53.210;6.504;2023-04-15T02:46:23;5.90;99.90
52058;DHT22;38063;53.210;6.504;2023-04-15T02:48:49;5.90;99.90
52058;DHT22;38063;53.210;6.504;2023-04-15T02:51:17;5.90;99.90
52058;DHT22;38063;53.210;6.504;2023-04-15T02:53:44;5.90;99.90
52058;DHT22;38063;53.210;6.504;2023-04-15T02:56:10;5.90;99.90
52058;DHT22;38063;53.210;6.504;2023-04-15T02:58:37;5.90;99.90
52058;DHT22;38063;53.210;6.504;2023-04-15T03:01:03;5.80;99.90
52058;DHT22;38063;53.210;6.504;2023-04-15T03:03:29;5.80;99.90
52058;DHT22;38063;53.210;6.504;2023-04-15T03:05:55;5.80;99.90
52058;DHT22;38063;53.210;6.504;2023-04-15T03:08:21;5.70;99.90
52058;DHT22;38063;53.210;6.504;2023-04-15T03:10:47;5.70;99.90
52058;DHT22;38063;53.210;6.504;2023-04-15T03:13:12;5.70;99.90
52058;DHT22;38063;53.210;6.504;2023-04-15T03:15:38;5.60;99.90
52058;DHT22;38063;53.210;6.504;2023-04-15T03:18:04;5.60;99.90
52058;DHT22;38063;53.210;6.504;2023-04-15T03:20:30;5.60;99.90
52058;DHT22;38063;53.210;6.504;2023-04-15T03:22:55;5.60;99.90
52058;DHT22;38063;53.210;6.504;2023-04-15T03:25:21;5.50;99.90
52058;DHT22;38063;53.210;6.504;2023-04-15T03:27:47;5.60;99.90
52058;DHT22;38063;53.210;6.504;2023-04-15T03:30:12;5.50;99.90
52058;DHT22;38063;53.210;6.504;2023-04-15T03:32:38;5.50;99.90
52058;DHT22;38063;53.210;6.504;2023-04-15T03:35:04;5.60;99.90
52058;DHT22;38063;53.210;6.504;2023-04-15T03:37:31;5.50;99.90
52058;DHT22;38063;53.210;6.504;2023-04-15T03:39:56;5.50;99.90
52058;DHT22;38063;53.210;6.504;2023-04-15T03:42:22;5.40;99.90
52058;DHT22;38063;53.210;6.504;2023-04-15T03:44:48;5.50;99.90
52058;DHT22;38063;53.210;6.504;2023-04-15T03:47:13;5.50;99.90
52058;DHT22;38063;53.210;6.504;2023-04-15T03:49:39;5.40;99.90
52058;DHT22;38063;53.210;6.504;2023-04-15T03:52:05;5.80;99.90
52058;DHT22;38063;53.210;6.504;2023-04-15T03:54:31;5.50;99.90
52058;DHT22;38063;53.210;6.504;2023-04-15T03:56:59;5.40;99.90
52058;DHT22;38063;53.210;6.504;2023-04-15T03:59:25;5.40;99.90
52058;DHT22;38063;53.210;6.504;2023-04-15T04:01:51;5.70;99.90
52058;DHT22;38063;53.210;6.504;2023-04-15T04:04:17;5.40;99.90
52058;DHT22;38063;53.210;6.504;2023-04-15T04:06:43;5.40;99.90
52058;DHT22;38063;53.210;6.504;2023-04-15T04:09:08;5.40;99.90
52058;DHT22;38063;53.210;6.504;2023-04-15T04:11:34;5.40;99.90
52058;DHT22;38063;53.210;6.504;2023-04-15T04:14:00;5.40;99.90
52058;DHT22;38063;53.210;6.504;2023-04-15T04:16:25;5.30;99.90
52058;DHT22;38063;53.210;6.504;2023-04-15T04:18:51;5.30;99.90
52058;DHT22;38063;53.210;6.504;2023-04-15T04:21:17;5.30;99.90
52058;DHT22;38063;53.210;6.504;2023-04-15T04:23:42;5.20;99.90
52058;DHT22;38063;53.210;6.504;2023-04-15T04:26:08;5.40;99.90
52058;DHT22;38063;53.210;6.504;2023-04-15T04:28:33;5.20;99.90
52058;DHT22;38063;53.210;6.504;2023-04-15T04:31:00;5.20;99.90
52058;DHT22;38063;53.210;6.504;2023-04-15T04:33:26;5.10;99.90
52058;DHT22;38063;53.210;6.504;2023-04-15T04:35:52;6.10;99.90
52058;DHT22;38063;53.210;6.504;2023-04-15T04:38:17;5.10;99.90
52058;DHT22;38063;53.210;6.504;2023-04-15T04:40:43;5.10;99.90
52058;DHT22;38063;53.210;6.504;2023-04-15T04:43:09;5.20;99.90
52058;DHT22;38063;53.210;6.504;2023-04-15T04:45:34;5.00;99.90
52058;DHT22;38063;53.210;6.504;2023-04-15T04:48:00;4.90;99.90
52058;DHT22;38063;53.210;6.504;2023-04-15T04:50:26;4.90;99.90
52058;DHT22;38063;53.210;6.504;2023-04-15T04:52:52;4.90;99.90
52058;DHT22;38063;53.210;6.504;2023-04-15T04:55:17;4.80;99.90
52058;DHT22;38063;53.210;6.504;2023-04-15T04:57:43;4.80;99.90
52058;DHT22;38063;53.210;6.504;2023-04-15T05:00:09;4.70;99.90
52058;DHT22;38063;53.210;6.504;2023-04-15T05:02:35;4.70;99.90
52058;DHT22;38063;53.210;6.504;2023-04-15T05:05:01;4.70;99.90
52058;DHT22;38063;53.210;6.504;2023-04-15T05:07:26;4.70;99.90
52058;DHT22;38063;53.210;6.504;2023-04-15T05:09:52;4.70;99.90
52058;DHT22;38063;53.210;6.504;2023-04-15T05:12:18;4.60;99.90
52058;DHT22;38063;53.210;6.504;2023-04-15T05:14:43;4.60;99.90
52058;DHT22;38063;53.210;6.504;2023-04-15T05:17:11;4.80;99.90
52058;DHT22;38063;53.210;6.504;2023-04-15T05:19:36;4.60;99.90
52058;DHT22;38063;53.210;6.504;2023-04-15T05:22:02;4.60;99.90
52058;DHT22;38063;53.210;6.504;2023-04-15T05:24:28;4.60;99.90
52058;DHT22;38063;53.210;6.504;2023-04-15T05:26:53;4.60;99.90
52058;DHT22;38063;53.210;6.504;2023-04-15T05:29:20;4.50;99.90
52058;DHT22;38063;53.210;6.504;2023-04-15T05:31:46;4.60;99.90
52058;DHT22;38063;53.210;6.504;2023-04-15T05:34:12;4.60;99.90
52058;DHT22;38063;53.210;6.504;2023-04-15T05:36:40;4.60;99.90
52058;DHT22;38063;53.210;6.504;2023-04-15T05:39:06;5.40;99.90
52058;DHT22;38063;53.210;6.504;2023-04-15T05:41:31;4.70;99.90
52058;DHT22;38063;53.210;6.504;2023-04-15T05:43:57;4.70;99.90
52058;DHT22;38063;53.210;6.504;2023-04-15T05:46:23;4.80;99.90
52058;DHT22;38063;53.210;6.504;2023-04-15T05:48:48;4.80;99.90
52058;DHT22;38063;53.210;6.504;2023-04-15T05:51:14;4.80;99.90
52058;DHT22;38063;53.210;6.504;2023-04-15T05:53:40;4.90;99.90
52058;DHT22;38063;53.210;6.504;2023-04-15T05:56:06;4.90;99.90
52058;DHT22;38063;53.210;6.504;2023-04-15T05:58:32;4.90;99.90
52058;DHT22;38063;53.210;6.504;2023-04-15T06:00:58;5.10;99.90
52058;DHT22;38063;53.210;6.504;2023-04-15T06:03:23;4.90;99.90
52058;DHT22;38063;53.210;6.504;2023-04-15T06:05:49;5.00;99.90
52058;DHT22;38063;53.210;6.504;2023-04-15T06:08:15;5.00;99.90
52058;DHT22;38063;53.210;6.504;2023-04-15T06:10:41;5.10;99.90
52058;DHT22;38063;53.210;6.504;2023-04-15T06:13:07;5.10;99.90
52058;DHT22;38063;53.210;6.504;2023-04-15T06:15:32;5.20;99.90
52058;DHT22;38063;53.210;6.504;2023-04-15T06:17:58;5.20;99.90
52058;DHT22;38063;53.210;6.504;2023-04-15T06:20:24;5.30;99.90
52058;DHT22;38063;53.210;6.504;2023-04-15T06:22:49;5.30;99.90
52058;DHT22;38063;53.210;6.504;2023-04-15T06:25:15;5.40;99.90
52058;DHT22;38063;53.210;6.504;2023-04-15T06:27:41;5.60;99.90
52058;DHT22;38063;53.210;6.504;2023-04-15T06:30:07;5.60;99.90
52058;DHT22;38063;53.210;6.504;2023-04-15T06:32:33;5.80;99.90
52058;DHT22;38063;53.210;6.504;2023-04-15T06:34:59;6.00;99.90
52058;DHT22;38063;53.210;6.504;2023-04-15T06:37:24;6.00;99.90
52058;DHT22;38063;53.210;6.504;2023-04-15T06:39:50;6.20;99.90
52058;DHT22;38063;53.210;6.504;2023-04-15T06:42:16;6.30;99.90
52058;DHT22;38063;53.210;6.504;2023-04-15T06:44:42;6.40;99.90
52058;DHT22;38063;53.210;6.504;2023-04-15T06:47:07;6.50;99.90
52058;DHT22;38063;53.210;6.504;2023-04-15T06:49:33;6.70;99.90
52058;DHT22;38063;53.210;6.504;2023-04-15T06:52:00;6.80;99.90
52058;DHT22;38063;53.210;6.504;2023-04-15T06:54:26;6.90;99.90
52058;DHT22;38063;53.210;6.504;2023-04-15T06:56:52;7.10;99.90
52058;DHT22;38063;53.210;6.504;2023-04-15T06:59:17;7.20;99.90
52058;DHT22;38063;53.210;6.504;2023-04-15T07:01:43;7.30;99.90
52058;DHT22;38063;53.210;6.504;2023-04-15T07:04:09;7.40;99.90
52058;DHT22;38063;53.210;6.504;2023-04-15T07:06:36;7.50;99.90
52058;DHT22;38063;53.210;6.504;2023-04-15T07:09:03;7.60;99.90
52058;DHT22;38063;53.210;6.504;2023-04-15T07:11:29;8.50;99.90
52058;DHT22;38063;53.210;6.504;2023-04-15T07:13:56;7.80;99.90
52058;DHT22;38063;53.210;6.504;2023-04-15T07:16:22;8.60;99.90
52058;DHT22;38063;53.210;6.504;2023-04-15T07:18:48;7.90;99.90
52058;DHT22;38063;53.210;6.504;2023-04-15T07:21:14;8.00;99.90
52058;DHT22;38063;53.210;6.504;2023-04-15T07:23:39;8.00;99.90
52058;DHT22;38063;53.210;6.504;2023-04-15T07:26:05;8.00;99.90
52058;DHT22;38063;53.210;6.504;2023-04-15T07:28:30;8.20;99.90
52058;DHT22;38063;53.210;6.504;2023-04-15T07:30:56;8.20;99.90
52058;DHT22;38063;53.210;6.504;2023-04-15T07:33:22;8.40;99.90
52058;DHT22;38063;53.210;6.504;2023-04-15T07:35:48;8.20;99.90
52058;DHT22;38063;53.210;6.504;2023-04-15T07:38:14;8.30;99.90
52058;DHT22;38063;53.210;6.504;2023-04-15T07:40:40;8.30;99.90
52058;DHT22;38063;53.210;6.504;2023-04-15T07:43:07;8.50;99.90
52058;DHT22;38063;53.210;6.504;2023-04-15T07:45:33;9.20;99.90
52058;DHT22;38063;53.210;6.504;2023-04-15T07:48:00;8.50;99.90
52058;DHT22;38063;53.210;6.504;2023-04-15T07:50:27;8.50;99.90
52058;DHT22;38063;53.210;6.504;2023-04-15T07:52:53;8.60;99.90
52058;DHT22;38063;53.210;6.504;2023-04-15T07:55:19;8.60;99.90
52058;DHT22;38063;53.210;6.504;2023-04-15T07:57:47;8.60;99.90
52058;DHT22;38063;53.210;6.504;2023-04-15T08:00:14;9.20;99.90
52058;DHT22;38063;53.210;6.504;2023-04-15T08:02:41;8.60;99.90
52058;DHT22;38063;53.210;6.504;2023-04-15T08:05:08;8.60;99.90
52058;DHT22;38063;53.210;6.504;2023-04-15T08:07:34;8.50;99.90
52058;DHT22;38063;53.210;6.504;2023-04-15T08:10:00;8.40;99.90
52058;DHT22;38063;53.210;6.504;2023-04-15T08:12:26;8.50;99.90
52058;DHT22;38063;53.210;6.504;2023-04-15T08:14:52;9.20;99.90
52058;DHT22;38063;53.210;6.504;2023-04-15T08:17:19;8.50;99.90
52058;DHT22;38063;53.210;6.504;2023-04-15T08:19:45;8.50;99.90
52058;DHT22;38063;53.210;6.504;2023-04-15T08:22:13;8.50;99.90
52058;DHT22;38063;53.210;6.504;2023-04-15T08:24:39;8.60;99.90
52058;DHT22;38063;53.210;6.504;2023-04-15T08:27:05;9.10;99.90
52058;DHT22;38063;53.210;6.504;2023-04-15T08:29:33;8.80;99.90
52058;DHT22;38063;53.210;6.504;2023-04-15T08:32:00;8.60;99.90
52058;DHT22;38063;53.210;6.504;2023-04-15T08:34:30;8.60;99.90
52058;DHT22;38063;53.210;6.504;2023-04-15T08:36:55;8.70;99.90
52058;DHT22;38063;53.210;6.504;2023-04-15T08:39:21;8.60;99.90
52058;DHT22;38063;53.210;6.504;2023-04-15T08:41:51;8.50;99.90
52058;DHT22;38063;53.210;6.504;2023-04-15T08:44:23;8.50;99.90
52058;DHT22;38063;53.210;6.504;2023-04-15T08:46:50;8.50;99.90
52058;DHT22;38063;53.210;6.504;2023-04-15T08:49:17;8.50;99.90
52058;DHT22;38063;53.210;6.504;2023-04-15T08:51:44;8.50;99.90
52058;DHT22;38063;53.210;6.504;2023-04-15T08:54:10;8.60;99.90
52058;DHT22;38063;53.210;6.504;2023-04-15T08:56:37;8.60;99.90
52058;DHT22;38063;53.210;6.504;2023-04-15T08:59:03;8.60;99.90
52058;DHT22;38063;53.210;6.504;2023-04-15T09:01:31;8.60;99.90
52058;DHT22;38063;53.210;6.504;2023-04-15T09:03:58;8.50;99.90
52058;DHT22;38063;53.210;6.504;2023-04-15T09:06:24;8.50;99.90
52058;DHT22;38063;53.210;6.504;2023-04-15T09:08:50;8.40;99.90
52058;DHT22;38063;53.210;6.504;2023-04-15T09:11:16;8.40;99.90
52058;DHT22;38063;53.210;6.504;2023-04-15T09:13:43;8.40;99.90
52058;DHT22;38063;53.210;6.504;2023-04-15T09:16:08;8.30;99.90
52058;DHT22;38063;53.210;6.504;2023-04-15T09:18:35;8.30;99.90
52058;DHT22;38063;53.210;6.504;2023-04-15T09:21:05;8.40;99.90
52058;DHT22;38063;53.210;6.504;2023-04-15T09:23:33;8.40;99.90
52058;DHT22;38063;53.210;6.504;2023-04-15T09:26:00;8.50;99.90
52058;DHT22;38063;53.210;6.504;2023-04-15T09:28:27;8.50;99.90
52058;DHT22;38063;53.210;6.504;2023-04-15T09:30:57;8.50;99.90
52058;DHT22;38063;53.210;6.504;2023-04-15T09:33:24;8.50;99.90
52058;DHT22;38063;53.210;6.504;2023-04-15T09:36:01;8.40;99.90
52058;DHT22;38063;53.210;6.504;2023-04-15T09:38:28;8.40;99.90
52058;DHT22;38063;53.210;6.504;2023-04-15T09:40:55;9.20;99.90
52058;DHT22;38063;53.210;6.504;2023-04-15T09:43:21;8.30;99.90
52058;DHT22;38063;53.210;6.504;2023-04-15T09:45:51;8.40;99.90
52058;DHT22;38063;53.210;6.504;2023-04-15T09:50:43;8.80;99.90
52058;DHT22;38063;53.210;6.504;2023-04-15T09:53:09;8.80;99.90
52058;DHT22;38063;53.210;6.504;2023-04-15T09:55:38;8.80;99.90
52058;DHT22;38063;53.210;6.504;2023-04-15T09:58:24;8.90;99.90
52058;DHT22;38063;53.210;6.504;2023-04-15T10:00:52;8.90;99.90
52058;DHT22;38063;53.210;6.504;2023-04-15T10:03:23;9.00;99.90
52058;DHT22;38063;53.210;6.504;2023-04-15T10:05:50;9.00;99.90
52058;DHT22;38063;53.210;6.504;2023-04-15T10:08:19;9.00;99.90
52058;DHT22;38063;53.210;6.504;2023-04-15T10:10:46;9.00;99.90
52058;DHT22;38063;53.210;6.504;2023-04-15T10:13:22;9.00;99.90
52058;DHT22;38063;53.210;6.504;2023-04-15T10:16:00;9.10;99.90
52058;DHT22;38063;53.210;6.504;2023-04-15T10:18:34;9.00;99.90
52058;DHT22;38063;53.210;6.504;2023-04-15T10:21:03;9.00;99.90
52058;DHT22;38063;53.210;6.504;2023-04-15T10:23:30;9.10;99.90
52058;DHT22;38063;53.210;6.504;2023-04-15T10:25:57;9.00;99.90
52058;DHT22;38063;53.210;6.504;2023-04-15T10:28:24;9.00;99.90
52058;DHT22;38063;53.210;6.504;2023-04-15T10:30:51;9.70;99.90
52058;DHT22;38063;53.210;6.504;2023-04-15T10:33:20;9.00;99.90
52058;DHT22;38063;53.210;6.504;2023-04-15T10:35:48;9.20;99.90
52058;DHT22;38063;53.210;6.504;2023-04-15T10:41:26;9.00;99.90
52058;DHT22;38063;53.210;6.504;2023-04-15T10:43:54;8.90;99.90
52058;DHT22;38063;53.210;6.504;2023-04-15T10:46:44;8.90;99.90
52058;DHT22;38063;53.210;6.504;2023-04-15T10:49:15;8.90;99.90
52058;DHT22;38063;53.210;6.504;2023-04-15T10:51:43;8.90;99.90
52058;DHT22;38063;53.210;6.504;2023-04-15T10:54:15;9.50;99.90
52058;DHT22;38063;53.210;6.504;2023-04-15T10:56:42;8.90;99.90
52058;DHT22;38063;53.210;6.504;2023-04-15T10:59:08;8.90;99.90
52058;DHT22;38063;53.210;6.504;2023-04-15T11:02:11;8.80;99.90
52058;DHT22;38063;53.210;6.504;2023-04-15T11:04:56;8.90;99.90
52058;DHT22;38063;53.210;6.504;2023-04-15T11:12:52;9.00;99.90
52058;DHT22;38063;53.210;6.504;2023-04-15T11:15:40;8.90;99.90
52058;DHT22;38063;53.210;6.504;2023-04-15T11:20:42;9.00;99.90
52058;DHT22;38063;53.210;6.504;2023-04-15T11:23:13;9.10;99.90
52058;DHT22;38063;53.210;6.504;2023-04-15T11:25:39;9.50;99.90
52058;DHT22;38063;53.210;6.504;2023-04-15T11:28:05;9.40;99.90
52058;DHT22;38063;53.210;6.504;2023-04-15T11:30:33;9.20;99.90
52058;DHT22;38063;53.210;6.504;2023-04-15T11:33:10;9.20;99.90
52058;DHT22;38063;53.210;6.504;2023-04-15T11:35:37;9.20;99.90
52058;DHT22;38063;53.210;6.504;2023-04-15T11:38:04;9.60;99.90
52058;DHT22;38063;53.210;6.504;2023-04-15T11:40:30;9.20;99.90
52058;DHT22;38063;53.210;6.504;2023-04-15T11:43:04;9.20;99.90
52058;DHT22;38063;53.210;6.504;2023-04-15T11:45:30;9.30;99.90
52058;DHT22;38063;53.210;6.504;2023-04-15T11:48:05;9.20;99.90
52058;DHT22;38063;53.210;6.504;2023-04-15T11:50:31;9.20;99.90
52058;DHT22;38063;53.210;6.504;2023-04-15T11:52:58;9.10;99.90
52058;DHT22;38063;53.210;6.504;2023-04-15T11:55:24;9.10;99.90
52058;DHT22;38063;53.210;6.504;2023-04-15T12:00:33;9.00;99.90
52058;DHT22;38063;53.210;6.504;2023-04-15T12:03:22;9.10;99.90
52058;DHT22;38063;53.210;6.504;2023-04-15T12:13:58;9.00;99.90
52058;DHT22;38063;53.210;6.504;2023-04-15T12:16:24;9.10;99.90
52058;DHT22;38063;53.210;6.504;2023-04-15T12:18:52;9.10;99.90
52058;DHT22;38063;53.210;6.504;2023-04-15T12:21:21;9.10;99.90
52058;DHT22;38063;53.210;6.504;2023-04-15T12:23:51;9.10;99.90
52058;DHT22;38063;53.210;6.504;2023-04-15T12:26:20;9.10;99.90
52058;DHT22;38063;53.210;6.504;2023-04-15T12:29:03;9.10;99.90
52058;DHT22;38063;53.210;6.504;2023-04-15T12:31:29;9.10;99.90
52058;DHT22;38063;53.210;6.504;2023-04-15T12:33:55;9.10;99.90
52058;DHT22;38063;53.210;6.504;2023-04-15T12:36:22;9.00;99.90
52058;DHT22;38063;53.210;6.504;2023-04-15T12:38:48;9.10;99.90
52058;DHT22;38063;53.210;6.504;2023-04-15T12:41:14;9.70;99.90
52058;DHT22;38063;53.210;6.504;2023-04-15T12:43:39;9.00;99.90
52058;DHT22;38063;53.210;6.504;2023-04-15T12:46:06;9.00;99.90
52058;DHT22;38063;53.210;6.504;2023-04-15T12:48:33;9.30;99.90
52058;DHT22;38063;53.210;6.504;2023-04-15T12:50:59;9.00;99.90
52058;DHT22;38063;53.210;6.504;2023-04-15T12:53:25;9.10;99.90
52058;DHT22;38063;53.210;6.504;2023-04-15T12:55:51;8.80;99.90
52058;DHT22;38063;53.210;6.504;2023-04-15T12:58:16;8.90;99.90
52058;DHT22;38063;53.210;6.504;2023-04-15T13:00:42;8.90;99.90
52058;DHT22;38063;53.210;6.504;2023-04-15T13:03:09;8.80;99.90
52058;DHT22;38063;53.210;6.504;2023-04-15T13:05:35;8.90;99.90
52058;DHT22;38063;53.210;6.504;2023-04-15T13:08:04;8.90;99.90
52058;DHT22;38063;53.210;6.504;2023-04-15T13:10:30;8.80;99.90
52058;DHT22;38063;53.210;6.504;2023-04-15T13:12:56;8.80;99.90
52058;DHT22;38063;53.210;6.504;2023-04-15T13:15:22;8.80;99.90
52058;DHT22;38063;53.210;6.504;2023-04-15T13:17:48;8.80;99.90
52058;DHT22;38063;53.210;6.504;2023-04-15T13:20:14;8.70;99.90
52058;DHT22;38063;53.210;6.504;2023-04-15T13:22:40;8.70;99.90
52058;DHT22;38063;53.210;6.504;2023-04-15T13:25:06;8.90;99.90
52058;DHT22;38063;53.210;6.504;2023-04-15T13:27:32;8.60;99.90
52058;DHT22;38063;53.210;6.504;2023-04-15T13:29:58;8.50;99.90
52058;DHT22;38063;53.210;6.504;2023-04-15T13:32:24;8.50;99.90
52058;DHT22;38063;53.210;6.504;2023-04-15T13:34:50;8.50;99.90
52058;DHT22;38063;53.210;6.504;2023-04-15T13:37:16;8.40;99.90
52058;DHT22;38063;53.210;6.504;2023-04-15T13:39:41;8.50;99.90
52058;DHT22;38063;53.210;6.504;2023-04-15T13:42:07;8.50;99.90
52058;DHT22;38063;53.210;6.504;2023-04-15T13:44:33;8.40;99.90
52058;DHT22;38063;53.210;6.504;2023-04-15T13:46:59;8.50;99.90
52058;DHT22;38063;53.210;6.504;2023-04-15T13:49:25;8.40;99.90
52058;DHT22;38063;53.210;6.504;2023-04-15T13:51:51;8.40;99.90
52058;DHT22;38063;53.210;6.504;2023-04-15T13:54:17;8.30;99.90
52058;DHT22;38063;53.210;6.504;2023-04-15T13:56:42;8.30;99.90
52058;DHT22;38063;53.210;6.504;2023-04-15T13:59:08;8.30;99.90
52058;DHT22;38063;53.210;6.504;2023-04-15T14:01:34;8.30;99.90
52058;DHT22;38063;53.210;6.504;2023-04-15T14:04:00;8.30;99.90
52058;DHT22;38063;53.210;6.504;2023-04-15T14:06:27;8.30;99.90
52058;DHT22;38063;53.210;6.504;2023-04-15T14:08:53;8.40;99.90
52058;DHT22;38063;53.210;6.504;2023-04-15T14:11:19;8.30;99.90
52058;DHT22;38063;53.210;6.504;2023-04-15T14:13:45;8.40;99.90
52058;DHT22;38063;53.210;6.504;2023-04-15T14:16:10;8.80;99.90
52058;DHT22;38063;53.210;6.504;2023-04-15T14:18:36;9.20;99.90
52058;DHT22;38063;53.210;6.504;2023-04-15T14:21:02;8.40;99.90
52058;DHT22;38063;53.210;6.504;2023-04-15T14:23:28;8.30;99.90
52058;DHT22;38063;53.210;6.504;2023-04-15T14:25:53;8.30;99.90
52058;DHT22;38063;53.210;6.504;2023-04-15T14:28:19;8.30;99.90
52058;DHT22;38063;53.210;6.504;2023-04-15T14:30:45;8.30;99.90
52058;DHT22;38063;53.210;6.504;2023-04-15T14:33:11;8.20;99.90
52058;DHT22;38063;53.210;6.504;2023-04-15T14:35:37;8.30;99.90
52058;DHT22;38063;53.210;6.504;2023-04-15T14:38:03;8.80;99.90
52058;DHT22;38063;53.210;6.504;2023-04-15T14:40:31;8.20;99.90
52058;DHT22;38063;53.210;6.504;2023-04-15T14:42:57;8.20;99.90
52058;DHT22;38063;53.210;6.504;2023-04-15T14:45:23;8.20;99.90
52058;DHT22;38063;53.210;6.504;2023-04-15T14:47:49;8.20;99.90
52058;DHT22;38063;53.210;6.504;2023-04-15T14:50:16;8.10;99.90
52058;DHT22;38063;53.210;6.504;2023-04-15T14:52:42;8.10;99.90
52058;DHT22;38063;53.210;6.504;2023-04-15T14:55:08;8.10;99.90
52058;DHT22;38063;53.210;6.504;2023-04-15T14:57:35;8.10;99.90
52058;DHT22;38063;53.210;6.504;2023-04-15T15:00:02;8.00;99.90
52058;DHT22;38063;53.210;6.504;2023-04-15T15:02:28;8.10;99.90
52058;DHT22;38063;53.210;6.504;2023-04-15T15:04:54;8.00;99.90
52058;DHT22;38063;53.210;6.504;2023-04-15T15:07:21;8.20;99.90
52058;DHT22;38063;53.210;6.504;2023-04-15T15:09:47;8.00;99.90
52058;DHT22;38063;53.210;6.504;2023-04-15T15:12:13;8.00;99.90
52058;DHT22;38063;53.210;6.504;2023-04-15T15:14:38;8.00;99.90
52058;DHT22;38063;53.210;6.504;2023-04-15T15:17:04;8.00;99.90
52058;DHT22;38063;53.210;6.504;2023-04-15T15:19:30;8.10;99.90
52058;DHT22;38063;53.210;6.504;2023-04-15T15:21:55;7.90;99.90
52058;DHT22;38063;53.210;6.504;2023-04-15T15:24:21;7.90;99.90
52058;DHT22;38063;53.210;6.504;2023-04-15T15:26:47;7.90;99.90
52058;DHT22;38063;53.210;6.504;2023-04-15T15:29:13;8.00;99.90
52058;DHT22;38063;53.210;6.504;2023-04-15T15:31:39;7.90;99.90
52058;DHT22;38063;53.210;6.504;2023-04-15T15:34:04;7.80;99.90
52058;DHT22;38063;53.210;6.504;2023-04-15T15:36:30;7.80;99.90
52058;DHT22;38063;53.210;6.504;2023-04-15T15:38:59;7.80;99.90
52058;DHT22;38063;53.210;6.504;2023-04-15T15:41:25;7.80;99.90
52058;DHT22;38063;53.210;6.504;2023-04-15T15:43:52;7.80;99.90
52058;DHT22;38063;53.210;6.504;2023-04-15T15:46:17;7.80;99.90
52058;DHT22;38063;53.210;6.504;2023-04-15T15:48:43;7.80;99.90
52058;DHT22;38063;53.210;6.504;2023-04-15T15:51:09;7.80;99.90
52058;DHT22;38063;53.210;6.504;2023-04-15T15:53:35;7.80;99.90
52058;DHT22;38063;53.210;6.504;2023-04-15T15:56:01;7.70;99.90
52058;DHT22;38063;53.210;6.504;2023-04-15T15:58:29;7.80;99.90
52058;DHT22;38063;53.210;6.504;2023-04-15T16:00:55;7.70;99.90
52058;DHT22;38063;53.210;6.504;2023-04-15T16:03:22;7.70;99.90
52058;DHT22;38063;53.210;6.504;2023-04-15T16:05:48;7.70;99.90